ADDS METAR Data INFO
IDs: Format: Raw Decoded Include TAF

Data at: 0351 UTC 18 Oct 2017

KAAO 180254Z AUTO 17008KT 10SM CLR 13/08 A3008 RMK AO2 SLP185 T01330083 51008
KAAO 180154Z AUTO 17008KT 10SM CLR 14/08 A3008 RMK AO2 SLP185 T01390083
KAAO 180054Z AUTO 17007KT 10SM CLR 15/08 A3008 RMK AO2 SLP185 T01500078
KAAO 172354Z AUTO 18007KT 10SM CLR 18/07 A3006 RMK AO2 SLP178 T01780072 10228 20178 56007
KAAO 172254Z AUTO 19011G17KT 10SM CLR 21/07 A3006 RMK AO2 SLP177 T02110072
KAAO 172154Z AUTO 18015KT 10SM CLR 22/07 A3007 RMK AO2 SLP179 T02220072
KAAO 172054Z AUTO 18010G20KT 10SM CLR 22/07 A3008 RMK AO2 SLP183 T02220072 56026
KAAO 171954Z AUTO 19016G19KT 10SM CLR 22/08 A3010 RMK AO2 SLP189 T02220078
KAAO 171854Z AUTO 20016G23KT 10SM CLR 22/07 A3013 RMK AO2 SLP200 T02170072
KAAO 171754Z AUTO 20017G22KT 10SM CLR 21/07 A3016 RMK AO2 SLP210 T02060067 10206 20083 58012
KAAO 171654Z AUTO 21021KT 10SM CLR 19/06 A3018 RMK AO2 SLP216 T01890056
KAAO 171554Z AUTO 20013G23KT 10SM CLR 17/06 A3019 RMK AO2 SLP220 T01720061
KAAO 171454Z AUTO 19012KT 10SM CLR 14/06 A3020 RMK AO2 SLP225 T01440056 53004
KAAO 171354Z AUTO 18008KT 10SM CLR 12/06 A3019 RMK AO2 SLP225 T01220056
KAAO 171254Z AUTO 17008KT 10SM CLR 09/05 A3018 RMK AO2 SLP221 T00890050
KAAO 171154Z AUTO 18009KT 10SM CLR 08/05 A3018 RMK AO2 SLP222 T00830050 10106 20078 58005
KAAO 171054Z AUTO 17008KT 10SM CLR 08/05 A3019 RMK AO2 SLP223 T00780050
KAAO 170954Z AUTO 18008KT 10SM CLR 08/05 A3019 RMK AO2 SLP222 T00830050
KAAO 170854Z AUTO 18007KT 10SM CLR 08/05 A3020 RMK AO2 SLP225 T00830050 58010
KAAO 170754Z AUTO 19009KT 10SM CLR 11/05 A3021 RMK AO2 SLP228 T01060050
KAAO 170654Z AUTO 18007KT 10SM CLR 09/06 A3022 RMK AO2 SLP231 T00890056
KAAO 170554Z AUTO 17007KT 10SM CLR 09/06 A3023 RMK AO2 SLP235 T00940056 10144 20094 402060044 56008
KAAO 170454Z AUTO 17009KT 10SM CLR 10/06 A3023 RMK AO2 SLP237 T01000056
KAAO 170354Z AUTO 17008KT 10SM CLR 11/05 A3025 RMK AO2 SLP242 T01110050
KAAO 170254Z AUTO 18008KT 10SM CLR 12/05 A3026 RMK AO2 SLP246 T01170050 52006
KAAO 170154Z AUTO 18007KT 10SM CLR 12/05 A3025 RMK AO2 SLP245 T01220050
KAAO 170054Z AUTO 17007KT 10SM CLR 13/05 A3024 RMK AO2 SLP246 T01280050
KAAO 162354Z AUTO 17007KT 10SM CLR 15/04 A3024 RMK AO2 SLP241 T01500044 10206 20150 56013
KAAO 162254Z AUTO 18011KT 10SM CLR 18/03 A3025 RMK AO2 SLP245 T01830033
KAAO 162154Z AUTO 19009KT 10SM CLR 19/04 A3026 RMK AO2 SLP248 T01940039
KAAO 162054Z AUTO 20013KT 10SM CLR 20/03 A3028 RMK AO2 SLP253 T02000028 56033
KAAO 161954Z AUTO 22012KT 10SM CLR 21/03 A3030 RMK AO2 SLP260 T02060028
KAAO 161854Z AUTO 19009KT 10SM CLR 19/05 A3034 RMK AO2 SLP275 T01940050
KAAO 161754Z AUTO 20013KT 10SM CLR 19/04 A3038 RMK AO2 SLP286 T01890044 10189 20050 58013
KAAO 161654Z AUTO 21012KT 10SM CLR 17/04 A3040 RMK AO2 SLP296 T01720039
KAAO 161554Z AUTO 21010KT 10SM CLR 16/04 A3041 RMK AO2 SLP300 T01560044